createdAt,value
2023-02-05T00:02:21.381Z,1.20
2023-02-05T00:05:24.157Z,1.12
2023-02-05T00:08:27.666Z,1.83
2023-02-05T00:11:30.488Z,1.80
2023-02-05T00:14:33.683Z,1.67
2023-02-05T00:17:37.252Z,1.65
2023-02-05T00:20:39.677Z,1.52
2023-02-05T00:23:42.559Z,1.50
2023-02-05T00:26:44.969Z,1.60
2023-02-05T00:29:47.613Z,1.67
2023-02-05T00:32:49.973Z,1.80
2023-02-05T00:35:52.836Z,2.00
2023-02-05T00:38:55.169Z,1.75
2023-02-05T00:41:57.742Z,2.40
2023-02-05T00:45:00.089Z,1.60
2023-02-05T00:48:04.055Z,1.40
2023-02-05T00:51:06.862Z,1.75
2023-02-05T00:54:09.550Z,1.87
2023-02-05T00:57:12.064Z,2.00
2023-02-05T01:00:15.547Z,1.55
2023-02-05T01:03:19.695Z,1.20
2023-02-05T01:06:23.145Z,1.42
2023-02-05T01:09:25.563Z,1.62
2023-02-05T01:12:28.522Z,1.83
2023-02-05T01:15:31.736Z,1.70
2023-02-05T01:18:34.672Z,1.40
2023-02-05T01:21:37.059Z,2.03
2023-02-05T01:24:39.785Z,1.62
2023-02-05T01:27:42.232Z,1.50
2023-02-05T01:30:49.605Z,1.60
2023-02-05T01:33:52.146Z,1.57
2023-02-05T01:36:54.840Z,1.70
2023-02-05T01:39:59.247Z,1.70
2023-02-05T01:43:01.984Z,1.40
2023-02-05T01:46:15.202Z,1.75
2023-02-05T01:49:30.386Z,1.20
2023-02-05T01:52:34.317Z,2.20
2023-02-05T01:55:44.001Z,1.90
2023-02-05T01:58:56.179Z,1.70
2023-02-05T02:02:01.379Z,1.52
2023-02-05T02:05:11.948Z,1.33
2023-02-05T02:08:14.461Z,1.90
2023-02-05T02:11:21.027Z,1.33
2023-02-05T02:14:24.329Z,2.17
2023-02-05T02:17:28.611Z,2.28
2023-02-05T02:20:37.168Z,2.17
2023-02-05T02:23:45.760Z,1.40
2023-02-05T02:26:59.963Z,2.33
2023-02-05T02:30:30.502Z,1.83
2023-02-05T02:33:46.052Z,1.95
2023-02-05T02:37:26.042Z,1.80
2023-02-05T02:40:55.997Z,0.90
2023-02-05T02:44:23.108Z,1.77
2023-02-05T02:47:32.292Z,2.12
2023-02-05T02:50:40.433Z,1.48
2023-02-05T02:53:47.611Z,1.95
2023-02-05T02:56:52.749Z,1.75
2023-02-05T02:59:59.823Z,1.67
2023-02-05T03:03:07.423Z,2.00
2023-02-05T03:06:12.448Z,2.33
2023-02-05T03:09:42.858Z,2.10
2023-02-05T03:12:45.442Z,2.40
2023-02-05T03:15:48.896Z,1.90
2023-02-05T03:18:51.774Z,1.98
2023-02-05T03:21:58.550Z,2.28
2023-02-05T03:25:02.825Z,2.40
2023-02-05T03:28:05.960Z,2.22
2023-02-05T03:31:23.745Z,2.55
2023-02-05T03:34:32.633Z,2.30
2023-02-05T03:37:53.748Z,2.22
2023-02-05T03:41:20.888Z,2.42
2023-02-05T03:44:42.794Z,2.72
2023-02-05T03:48:13.074Z,2.67
2023-02-05T03:51:53.406Z,2.08
2023-02-05T03:54:56.710Z,2.45
2023-02-05T03:58:07.221Z,2.83
2023-02-05T04:01:11.979Z,2.33
2023-02-05T04:04:16.530Z,2.65
2023-02-05T04:07:19.279Z,2.87
2023-02-05T04:10:22.720Z,1.80
2023-02-05T04:13:26.005Z,3.33
2023-02-05T04:16:28.883Z,2.40
2023-02-05T04:19:34.381Z,2.37
2023-02-05T04:22:37.153Z,2.60
2023-02-05T04:25:39.824Z,2.12
2023-02-05T04:28:44.622Z,2.22
2023-02-05T04:31:49.849Z,2.40
2023-02-05T04:34:55.053Z,2.12
2023-02-05T04:37:57.522Z,2.17
2023-02-05T04:41:00.296Z,3.17
2023-02-05T04:44:03.646Z,2.30
2023-02-05T04:47:06.427Z,2.22
2023-02-05T04:50:09.183Z,2.30
2023-02-05T04:53:11.866Z,2.67
2023-02-05T04:56:16.643Z,2.45
2023-02-05T04:59:19.309Z,2.22
2023-02-05T05:02:23.227Z,2.15
2023-02-05T05:05:26.050Z,2.07
2023-02-05T05:08:29.010Z,2.12
2023-02-05T05:11:31.686Z,2.50
2023-02-05T05:14:34.096Z,2.53
2023-02-05T05:17:36.767Z,2.67
2023-02-05T05:20:39.630Z,2.05
2023-02-05T05:23:43.430Z,2.70
2023-02-05T05:26:46.672Z,2.40
2023-02-05T05:29:49.426Z,2.70
2023-02-05T05:32:55.808Z,2.83
2023-02-05T05:35:58.510Z,2.58
2023-02-05T05:39:20.919Z,2.53
2023-02-05T05:42:42.371Z,2.03
2023-02-05T05:45:44.783Z,2.72
2023-02-05T05:48:56.754Z,2.12
2023-02-05T05:51:59.181Z,2.25
2023-02-05T05:55:01.819Z,2.47
2023-02-05T05:58:05.423Z,2.55
2023-02-05T06:01:08.974Z,2.50
2023-02-05T06:04:11.722Z,0.87
2023-02-05T06:07:14.201Z,2.30
2023-02-05T06:10:17.036Z,2.12
2023-02-05T06:13:19.466Z,2.83
2023-02-05T06:16:24.352Z,1.80
2023-02-05T06:19:26.784Z,2.58
2023-02-05T06:22:29.596Z,2.20
2023-02-05T06:25:35.072Z,2.00
2023-02-05T06:28:38.019Z,2.53
2023-02-05T06:31:40.655Z,2.10
2023-02-05T06:34:43.462Z,3.43
2023-02-05T06:37:47.524Z,2.15
2023-02-05T06:40:50.537Z,2.62
2023-02-05T06:43:52.869Z,2.47
2023-02-05T06:46:55.685Z,3.22
2023-02-05T06:49:58.112Z,2.83
2023-02-05T06:53:00.744Z,2.97
2023-02-05T06:56:03.222Z,2.47
2023-02-05T06:59:05.909Z,3.08
2023-02-05T07:02:13.437Z,3.20
2023-02-05T07:05:16.065Z,2.67
2023-02-05T07:08:18.501Z,2.80
2023-02-05T07:11:22.431Z,2.37
2023-02-05T07:14:24.937Z,2.28
2023-02-05T07:17:27.833Z,3.03
2023-02-05T07:20:30.684Z,2.67
2023-02-05T07:23:33.887Z,2.70
2023-02-05T07:26:36.358Z,2.83
2023-02-05T07:29:39.089Z,2.47
2023-02-05T07:32:41.485Z,2.67
2023-02-05T07:35:44.220Z,2.87
2023-02-05T07:38:47.576Z,3.00
2023-02-05T07:41:51.326Z,3.23
2023-02-05T07:44:55.084Z,2.58
2023-02-05T07:47:57.676Z,3.10
2023-02-05T07:51:02.934Z,2.65
2023-02-05T07:54:12.776Z,3.10
2023-02-05T07:57:15.100Z,2.53
2023-02-05T08:00:18.042Z,2.80
2023-02-05T08:03:22.501Z,3.03
2023-02-05T08:06:25.743Z,2.90
2023-02-05T08:09:28.416Z,2.70
2023-02-05T08:12:30.881Z,2.40
2023-02-05T08:15:39.008Z,2.95
2023-02-05T08:18:41.683Z,3.45
2023-02-05T08:21:44.507Z,2.72
2023-02-05T08:24:49.632Z,3.00
2023-02-05T08:27:52.413Z,3.70
2023-02-05T08:30:56.716Z,2.70
2023-02-05T08:34:00.265Z,3.50
2023-02-05T08:37:02.839Z,3.10
2023-02-05T08:40:05.926Z,3.43
2023-02-05T08:43:08.704Z,2.93
2023-02-05T08:46:14.003Z,3.00
2023-02-05T08:49:17.060Z,3.15
2023-02-05T08:52:20.449Z,3.28
2023-02-05T08:55:22.838Z,2.50
2023-02-05T08:58:26.449Z,3.10
2023-02-05T09:01:28.836Z,3.00
2023-02-05T09:04:31.586Z,2.83
2023-02-05T09:07:33.971Z,2.22
2023-02-05T09:10:36.751Z,3.10
2023-02-05T09:13:40.177Z,2.90
2023-02-05T09:16:42.945Z,2.72
2023-02-05T09:19:45.378Z,2.50
2023-02-05T09:22:48.288Z,2.50
2023-02-05T09:25:50.764Z,2.17
2023-02-05T09:28:53.438Z,2.40
2023-02-05T09:31:56.137Z,2.70
2023-02-05T09:34:58.905Z,2.00
2023-02-05T09:38:03.227Z,2.42
2023-02-05T09:41:17.053Z,2.30
2023-02-05T09:44:45.016Z,2.07
2023-02-05T09:48:06.255Z,2.42
2023-02-05T09:51:11.846Z,1.70
2023-02-05T09:54:31.132Z,1.87
2023-02-05T09:57:37.222Z,1.77
2023-02-05T10:00:53.880Z,1.87
2023-02-05T10:04:00.920Z,1.48
2023-02-05T10:07:26.900Z,1.62
2023-02-05T10:10:50.122Z,1.70
2023-02-05T10:14:33.131Z,2.00
2023-02-05T10:17:58.352Z,1.50
2023-02-05T10:21:06.372Z,1.80
2023-02-05T10:24:14.829Z,1.80
2023-02-05T10:27:24.259Z,1.90
2023-02-05T10:30:29.679Z,1.80
2023-02-05T10:33:56.120Z,1.77
2023-02-05T10:37:02.801Z,1.50
2023-02-05T10:40:16.427Z,1.70
2023-02-05T10:43:27.619Z,1.98
2023-02-05T10:46:35.316Z,1.80
2023-02-05T10:49:56.029Z,2.10
2023-02-05T10:52:58.710Z,2.20
2023-02-05T10:56:03.439Z,1.92
2023-02-05T10:59:07.263Z,2.28
2023-02-05T11:02:11.767Z,2.40
2023-02-05T11:05:18.220Z,2.53
2023-02-05T11:08:43.987Z,1.95
2023-02-05T11:11:51.557Z,2.00
2023-02-05T11:15:02.926Z,2.00
2023-02-05T11:18:07.486Z,2.10
2023-02-05T11:21:10.714Z,1.87
2023-02-05T11:24:39.554Z,1.65
2023-02-05T11:27:52.352Z,2.25
2023-02-05T11:30:55.491Z,1.85
2023-02-05T11:34:24.565Z,2.65
2023-02-05T11:37:27.035Z,2.50
2023-02-05T11:40:34.983Z,2.70
2023-02-05T11:43:41.182Z,2.90
2023-02-05T11:46:45.599Z,2.37
2023-02-05T11:49:51.206Z,2.67
2023-02-05T11:53:13.573Z,2.20
2023-02-05T11:56:24.339Z,2.30
2023-02-05T11:59:28.506Z,2.58
2023-02-05T12:02:35.841Z,2.20
2023-02-05T12:05:48.644Z,2.60
2023-02-05T12:08:55.002Z,2.50
2023-02-05T12:12:18.620Z,2.37
2023-02-05T12:15:24.492Z,2.58
2023-02-05T12:18:47.612Z,2.58
2023-02-05T12:22:04.997Z,2.90
2023-02-05T12:25:48.313Z,2.80
2023-02-05T12:29:15.620Z,2.90
2023-02-05T12:32:47.475Z,2.42
2023-02-05T12:35:52.477Z,3.03
2023-02-05T12:39:06.463Z,2.00
2023-02-05T12:42:16.125Z,2.50
2023-02-05T12:45:38.288Z,2.37
2023-02-05T12:48:49.652Z,3.03
2023-02-05T12:51:54.886Z,2.62
2023-02-05T12:55:06.078Z,2.23
2023-02-05T12:58:11.543Z,2.20
2023-02-05T13:01:22.710Z,2.12
2023-02-05T13:04:48.352Z,2.05
2023-02-05T13:07:55.238Z,2.33
2023-02-05T13:11:15.663Z,2.03
2023-02-05T13:14:23.500Z,2.17
2023-02-05T13:17:33.327Z,2.15
2023-02-05T13:21:01.240Z,2.00
2023-02-05T13:24:47.734Z,2.22
2023-02-05T13:28:13.918Z,1.97
2023-02-05T13:31:31.377Z,1.93
2023-02-05T13:34:34.750Z,1.80
2023-02-05T13:37:51.216Z,2.00
2023-02-05T13:41:21.624Z,2.10
2023-02-05T13:44:30.177Z,2.40
2023-02-05T13:47:49.948Z,2.27
2023-02-05T13:51:19.274Z,2.03
2023-02-05T13:54:40.381Z,1.92
2023-02-05T13:58:01.196Z,2.80
2023-02-05T14:01:23.577Z,2.33
2023-02-05T14:04:35.404Z,2.33
2023-02-05T14:07:45.978Z,1.87
2023-02-05T14:11:02.690Z,1.90
2023-02-05T14:14:22.211Z,2.35
2023-02-05T14:17:28.068Z,2.63
2023-02-05T14:20:34.177Z,2.80
2023-02-05T14:23:46.021Z,3.08
2023-02-05T14:27:00.790Z,3.28
2023-02-05T14:30:45.691Z,2.75
2023-02-05T14:33:48.795Z,3.10
2023-02-05T14:36:51.661Z,3.70
2023-02-05T14:39:54.203Z,3.37
2023-02-05T14:43:10.010Z,3.95
2023-02-05T14:46:31.722Z,3.30
2023-02-05T14:49:34.449Z,4.10
2023-02-05T14:52:42.809Z,4.00
2023-02-05T14:55:49.998Z,3.60
2023-02-05T14:59:00.728Z,3.87
2023-02-05T15:02:03.785Z,4.00
2023-02-05T15:05:13.778Z,3.87
2023-02-05T15:08:29.305Z,3.50
2023-02-05T15:12:03.463Z,3.92
2023-02-05T15:15:37.505Z,3.67
2023-02-05T15:18:46.637Z,4.10
2023-02-05T15:21:53.001Z,4.33
2023-02-05T15:24:57.139Z,4.80
2023-02-05T15:28:04.403Z,4.47
2023-02-05T15:31:17.040Z,4.15
2023-02-05T15:34:37.819Z,4.20
2023-02-05T15:38:00.201Z,4.07
2023-02-05T15:41:07.223Z,3.70
2023-02-05T15:44:21.355Z,4.07
2023-02-05T15:47:27.197Z,4.32
2023-02-05T15:50:33.902Z,2.83
2023-02-05T15:53:44.332Z,3.97
2023-02-05T15:56:52.169Z,4.25
2023-02-05T15:59:57.020Z,3.97
2023-02-05T16:03:03.008Z,4.35
2023-02-05T16:06:06.985Z,3.78
2023-02-05T16:09:17.247Z,5.03
2023-02-05T16:12:20.052Z,4.60
2023-02-05T16:15:23.057Z,4.82
2023-02-05T16:18:37.062Z,4.80
2023-02-05T16:21:44.799Z,4.90
2023-02-05T16:24:54.820Z,5.05
2023-02-05T16:27:59.450Z,5.20
2023-02-05T16:31:02.912Z,5.63
2023-02-05T16:34:22.665Z,4.90
2023-02-05T16:37:30.524Z,5.80
2023-02-05T16:40:38.960Z,4.60
2023-02-05T16:43:41.894Z,4.70
2023-02-05T16:46:44.420Z,4.57
2023-02-05T16:49:48.300Z,5.40
2023-02-05T16:52:57.887Z,5.43
2023-02-05T16:56:13.232Z,5.50
2023-02-05T16:59:25.086Z,4.65
2023-02-05T17:02:32.525Z,4.78
2023-02-05T17:05:37.135Z,5.62
2023-02-05T17:08:40.921Z,4.77
2023-02-05T17:11:43.781Z,5.68
2023-02-05T17:14:57.413Z,5.25
2023-02-05T17:18:45.344Z,5.70
2023-02-05T17:21:48.420Z,5.63
2023-02-05T17:24:52.093Z,5.68
2023-02-05T17:27:56.046Z,5.53
2023-02-05T17:30:59.002Z,5.00
2023-02-05T17:34:01.777Z,4.47
2023-02-05T17:37:05.192Z,4.87
2023-02-05T17:40:08.692Z,4.90
2023-02-05T17:43:11.284Z,5.00
2023-02-05T17:46:14.797Z,4.78
2023-02-05T17:49:17.220Z,4.57
2023-02-05T17:52:19.928Z,4.00
2023-02-05T17:55:22.663Z,4.63
2023-02-05T17:58:25.379Z,4.80
2023-02-05T18:01:27.886Z,4.30
2023-02-05T18:04:30.619Z,4.43
2023-02-05T18:07:56.894Z,5.30
2023-02-05T18:10:59.536Z,4.25
2023-02-05T18:14:03.501Z,3.92
2023-02-05T18:17:06.172Z,5.07
2023-02-05T18:20:10.023Z,5.23
2023-02-05T18:23:18.700Z,4.47
2023-02-05T18:26:27.256Z,4.72
2023-02-05T18:29:30.891Z,4.82
2023-02-05T18:32:33.336Z,4.83
2023-02-05T18:35:38.033Z,3.78
2023-02-05T18:38:43.150Z,5.43
2023-02-05T18:41:46.014Z,5.37
2023-02-05T18:44:48.741Z,4.87
2023-02-05T18:47:51.553Z,4.68
2023-02-05T18:50:56.930Z,4.12
2023-02-05T18:53:59.818Z,5.25
2023-02-05T18:57:03.357Z,4.77
2023-02-05T19:00:06.620Z,4.43
2023-02-05T19:03:09.053Z,4.70
2023-02-05T19:06:14.060Z,4.60
2023-02-05T19:09:16.776Z,4.70
2023-02-05T19:12:19.421Z,5.03
2023-02-05T19:15:21.849Z,4.62
2023-02-05T19:18:24.722Z,4.65
2023-02-05T19:21:29.190Z,5.10
2023-02-05T19:24:32.839Z,5.53
2023-02-05T19:27:36.987Z,5.15
2023-02-05T19:30:39.843Z,5.70
2023-02-05T19:33:42.700Z,5.20
2023-02-05T19:36:45.901Z,5.25
2023-02-05T19:39:48.364Z,5.62
2023-02-05T19:42:52.856Z,4.50
2023-02-05T19:45:55.687Z,5.62
2023-02-05T19:49:04.737Z,5.15
2023-02-05T19:52:09.589Z,4.68
2023-02-05T19:55:12.367Z,4.65
2023-02-05T19:58:14.783Z,4.50
2023-02-05T20:01:30.649Z,4.68
2023-02-05T20:04:33.462Z,4.55
2023-02-05T20:07:38.390Z,5.00
2023-02-05T20:10:41.252Z,5.10
2023-02-05T20:13:44.299Z,4.75
2023-02-05T20:16:48.087Z,4.75
2023-02-05T20:19:52.154Z,3.70
2023-02-05T20:22:57.816Z,4.82
2023-02-05T20:26:04.040Z,4.60
2023-02-05T20:29:25.858Z,3.35
2023-02-05T20:32:28.331Z,3.83
2023-02-05T20:35:31.187Z,4.00
2023-02-05T20:38:34.152Z,4.65
2023-02-05T20:41:36.865Z,4.10
2023-02-05T20:44:40.048Z,4.75
2023-02-05T20:47:42.688Z,3.65
2023-02-05T20:50:47.591Z,3.85
2023-02-05T20:53:50.516Z,4.60
2023-02-05T20:56:59.234Z,4.22
2023-02-05T21:00:04.338Z,4.28
2023-02-05T21:03:06.700Z,4.90
2023-02-05T21:06:10.478Z,4.00
2023-02-05T21:09:13.014Z,4.62
2023-02-05T21:12:15.618Z,4.20
2023-02-05T21:15:20.451Z,5.22
2023-02-05T21:18:24.584Z,2.05
2023-02-05T21:21:30.095Z,5.28
2023-02-05T21:24:33.208Z,4.33
2023-02-05T21:27:36.264Z,4.57
2023-02-05T21:30:40.419Z,4.30
2023-02-05T21:33:42.852Z,5.30
2023-02-05T21:36:47.878Z,3.90
2023-02-05T21:39:52.740Z,5.12
2023-02-05T21:42:55.610Z,5.47
2023-02-05T21:46:05.351Z,4.03
2023-02-05T21:49:08.694Z,4.50
2023-02-05T21:52:11.112Z,4.90
2023-02-05T21:55:13.856Z,5.00
2023-02-05T21:58:16.347Z,4.53
2023-02-05T22:01:27.836Z,5.20
2023-02-05T22:04:30.524Z,5.00
2023-02-05T22:07:33.051Z,5.68
2023-02-05T22:10:37.401Z,5.12
2023-02-05T22:13:42.616Z,4.28
2023-02-05T22:16:45.350Z,5.53
2023-02-05T22:19:47.726Z,4.97
2023-02-05T22:22:50.350Z,5.05
2023-02-05T22:25:52.816Z,4.63
2023-02-05T22:28:56.268Z,5.20
2023-02-05T22:31:58.744Z,4.82
2023-02-05T22:35:01.585Z,5.12
2023-02-05T22:38:04.837Z,5.47
2023-02-05T22:41:13.089Z,4.57
2023-02-05T22:44:15.615Z,4.93
2023-02-05T22:47:18.379Z,5.43
2023-02-05T22:50:21.909Z,5.03
2023-02-05T22:53:24.723Z,5.30
2023-02-05T22:56:28.502Z,4.90
2023-02-05T22:59:32.957Z,4.43
2023-02-05T23:02:35.368Z,4.60
2023-02-05T23:05:38.114Z,5.62
2023-02-05T23:08:41.524Z,5.43
2023-02-05T23:11:44.987Z,5.62
2023-02-05T23:14:47.393Z,5.12
2023-02-05T23:17:54.810Z,5.40
2023-02-05T23:20:57.136Z,4.45
2023-02-05T23:23:59.812Z,4.28
2023-02-05T23:27:04.097Z,4.82
2023-02-05T23:30:07.615Z,3.73
2023-02-05T23:33:10.061Z,4.18
2023-02-05T23:36:13.251Z,4.22
2023-02-05T23:39:15.696Z,4.00
2023-02-05T23:42:18.462Z,4.45
2023-02-05T23:45:24.736Z,5.72
2023-02-05T23:48:27.980Z,4.72
2023-02-05T23:51:30.831Z,4.32
2023-02-05T23:54:33.675Z,4.25
2023-02-05T23:57:36.137Z,4.50
